Time;durP1;ratioP1;P1;durP2;ratioP2;P2;SDS_P1;SDS_P2;PMS_P1;PMS_P2;Temp;Humidity;BMP_temperature;BMP_pressure;BME280_temperature;BME280_humidity;BME280_pressure;Samples;Min_cycle;Max_cycle;Signal;HPM_P1;HPM_P2
2022/03/06 00:02:45;;;;;;;32.50;13.65;;;;;;;0.27;50.61;99422.97;5182194;28;20123;-74
2022/03/06 00:05:36;;;;;;;36.22;14.02;;;;;;;0.37;50.27;99435.53;5167221;28;20508;-73
2022/03/06 00:08:27;;;;;;;38.38;14.65;;;;;;;0.26;52.62;99439.50;5181836;28;20058;-74
2022/03/06 00:11:18;;;;;;;34.15;14.77;;;;;;;0.83;51.58;99449.09;5178627;28;20045;-74
2022/03/06 00:14:08;;;;;;;35.92;14.43;;;;;;;0.58;51.87;99438.06;5183616;28;20125;-74
2022/03/06 00:16:59;;;;;;;34.75;14.50;;;;;;;0.37;52.71;99445.13;5191022;28;20171;-73
2022/03/06 00:19:49;;;;;;;36.97;14.65;;;;;;;0.46;52.51;99448.16;5205032;28;20524;-72
2022/03/06 00:22:39;;;;;;;29.77;13.15;;;;;;;0.41;52.44;99431.00;5162324;28;20056;-75
2022/03/06 00:25:29;;;;;;;33.17;13.30;;;;;;;0.41;53.26;99413.59;5165035;28;20051;-73
2022/03/06 00:28:20;;;;;;;33.65;13.20;;;;;;;0.51;52.60;99432.28;5162932;28;20424;-75
2022/03/06 00:31:11;;;;;;;28.73;12.85;;;;;;;0.58;53.54;99441.53;5162268;28;20058;-73
2022/03/06 00:34:01;;;;;;;28.67;12.43;;;;;;;0.69;51.69;99452.31;5160942;28;20543;-73
2022/03/06 00:36:51;;;;;;;29.13;12.02;;;;;;;0.61;52.44;99449.22;5179573;28;20466;-73
2022/03/06 00:39:42;;;;;;;26.27;12.18;;;;;;;0.67;52.55;99448.09;5182741;28;20062;-73
2022/03/06 00:42:32;;;;;;;32.03;13.55;;;;;;;0.58;52.91;99435.47;5180076;28;20057;-73
2022/03/06 00:45:22;;;;;;;26.95;12.45;;;;;;;0.73;51.56;99437.38;5169849;28;20062;-73
2022/03/06 00:48:13;;;;;;;30.90;12.10;;;;;;;0.70;52.31;99440.97;5191266;28;20150;-73
2022/03/06 00:51:03;;;;;;;28.27;12.52;;;;;;;0.81;53.65;99455.28;5168969;28;20112;-73
2022/03/06 00:53:53;;;;;;;27.50;12.52;;;;;;;0.92;52.36;99460.84;5160415;28;20157;-73
2022/03/06 00:56:43;;;;;;;27.98;13.00;;;;;;;0.82;53.17;99447.38;5161146;28;20054;-73
2022/03/06 00:59:35;;;;;;;34.58;13.77;;;;;;;0.73;54.31;99441.72;5160773;28;20144;-73
2022/03/06 01:02:27;;;;;;;28.60;12.55;;;;;;;0.66;54.05;99438.56;5159990;28;20065;-73
2022/03/06 01:05:17;;;;;;;27.30;12.25;;;;;;;0.61;54.07;99451.81;5170924;28;20054;-73
2022/03/06 01:08:08;;;;;;;30.15;12.93;;;;;;;0.57;53.49;99458.09;5167535;28;20052;-73
2022/03/06 01:10:58;;;;;;;28.30;13.85;;;;;;;0.32;53.32;99454.91;5178038;28;20160;-73
2022/03/06 01:13:49;;;;;;;31.40;13.40;;;;;;;0.31;53.33;99467.09;5180244;28;20507;-73
2022/03/06 01:16:39;;;;;;;28.30;12.93;;;;;;;0.50;53.07;99464.53;5197359;28;20089;-73
2022/03/06 01:19:30;;;;;;;27.55;12.88;;;;;;;0.01;54.00;99437.16;5200465;28;20050;-73
2022/03/06 01:22:20;;;;;;;28.30;13.10;;;;;;;0.18;54.26;99458.13;5169448;28;20149;-74
2022/03/06 01:25:10;;;;;;;30.58;13.77;;;;;;;0.07;53.64;99457.75;5165119;28;20533;-73
2022/03/06 01:28:03;;;;;;;33.78;13.95;;;;;;;-0.10;54.09;99451.50;5164608;28;20411;-73
2022/03/06 01:30:53;;;;;;;32.23;14.03;;;;;;;0.17;53.87;99466.88;5165282;28;20590;-73
2022/03/06 01:33:43;;;;;;;29.60;13.45;;;;;;;0.04;54.06;99465.69;5177688;28;20525;-73
2022/03/06 01:36:34;;;;;;;32.53;13.55;;;;;;;-0.16;54.26;99445.69;5182568;28;20694;-73
2022/03/06 01:39:24;;;;;;;31.58;13.75;;;;;;;-0.28;53.65;99458.31;5181107;28;20137;-73
2022/03/06 01:42:14;;;;;;;34.40;14.18;;;;;;;-0.35;53.58;99456.88;5181761;28;20407;-73
2022/03/06 01:45:06;;;;;;;30.77;13.68;;;;;;;-0.29;54.49;99455.78;5181152;28;20061;-73
2022/03/06 01:47:58;;;;;;;30.23;13.32;;;;;;;-0.50;55.49;99463.59;5181679;28;20101;-73
2022/03/06 01:50:48;;;;;;;34.90;13.95;;;;;;;-0.53;55.41;99447.22;5181965;28;20061;-74
2022/03/06 01:53:39;;;;;;;32.47;13.88;;;;;;;-0.49;53.75;99444.44;5182617;28;20049;-73
2022/03/06 01:56:29;;;;;;;30.02;13.30;;;;;;;-0.71;55.18;99426.22;5183121;28;20468;-73
2022/03/06 01:59:23;;;;;;;32.55;13.18;;;;;;;-0.64;54.53;99447.66;5182420;28;20519;-73
2022/03/06 02:02:14;;;;;;;30.92;13.95;;;;;;;-0.74;54.51;99447.19;5181204;28;20084;-73
2022/03/06 02:05:05;;;;;;;31.27;13.00;;;;;;;-0.64;55.24;99449.44;5182352;28;20050;-73
2022/03/06 02:07:56;;;;;;;35.08;14.88;;;;;;;-0.76;55.76;99442.97;5180281;28;20151;-73
2022/03/06 02:10:50;;;;;;;31.05;13.15;;;;;;;-0.82;56.15;99448.44;5182437;28;20073;-73
2022/03/06 02:13:42;;;;;;;34.92;14.27;;;;;;;-0.98;55.89;99412.59;5184456;28;20050;-73
2022/03/06 02:16:32;;;;;;;30.05;12.65;;;;;;;-0.98;54.49;99428.19;5183486;28;20049;-73
2022/03/06 02:19:22;;;;;;;29.02;13.50;;;;;;;-0.71;55.56;99431.44;5180764;28;20538;-73
2022/03/06 02:22:13;;;;;;;31.05;13.48;;;;;;;-0.53;55.33;99442.88;5181852;28;20060;-73
2022/03/06 02:25:09;;;;;;;36.13;14.32;;;;;;;-0.75;55.78;99431.63;5181094;28;20212;-73
2022/03/06 02:28:06;;;;;;;28.75;12.80;;;;;;;-0.77;56.02;99447.31;5181672;28;20516;-74
2022/03/06 02:30:56;;;;;;;31.75;13.48;;;;;;;-0.91;55.76;99430.56;5182166;28;20054;-73
2022/03/06 02:33:46;;;;;;;30.50;12.18;;;;;;;-0.88;55.92;99433.88;5181130;28;20136;-74
2022/03/06 02:36:37;;;;;;;35.05;14.15;;;;;;;-0.95;56.23;99422.88;5179567;28;20046;-74
2022/03/06 02:39:27;;;;;;;34.28;13.70;;;;;;;-1.07;55.98;99423.34;5182038;28;20057;-74
2022/03/06 02:42:31;;;;;;;34.63;13.90;;;;;;;-0.98;56.08;99433.41;5180857;28;20068;-74
2022/03/06 02:45:22;;;;;;;;;;;;;;;-1.04;55.35;99438.84;5180873;28;20060;-74
2022/03/06 02:48:13;;;;;;;34.22;14.25;;;;;;;-1.36;56.00;99426.22;5167784;28;19932;-74
2022/03/06 02:51:06;;;;;;;35.30;13.97;;;;;;;-1.14;56.00;99421.91;5183969;28;20068;-74
2022/03/06 02:53:56;;;;;;;29.75;12.43;;;;;;;-1.09;56.46;99430.38;5183746;28;20060;-74
2022/03/06 02:56:49;;;;;;;30.65;12.75;;;;;;;-1.20;56.74;99443.78;5182630;28;20136;-74
2022/03/06 02:59:40;;;;;;;29.65;12.75;;;;;;;-1.17;57.05;99444.59;5184183;28;20084;-74
2022/03/06 03:02:30;;;;;;;30.67;13.00;;;;;;;-1.37;56.92;99447.94;5181783;28;20061;-74
2022/03/06 03:05:21;;;;;;;31.42;13.18;;;;;;;-1.29;57.37;99445.91;5182101;28;20108;-74
2022/03/06 03:08:11;;;;;;;33.20;12.55;;;;;;;-1.29;56.77;99419.88;5180915;28;20407;-74
2022/03/06 03:11:01;;;;;;;30.98;13.25;;;;;;;-1.25;57.18;99439.69;5181149;28;20058;-74
2022/03/06 03:13:51;;;;;;;27.30;11.70;;;;;;;-1.44;57.45;99440.38;5183997;28;20049;-74
2022/03/06 03:16:42;;;;;;;33.53;13.02;;;;;;;-1.38;57.48;99448.88;5185152;28;20772;-74
2022/03/06 03:19:33;;;;;;;30.90;11.82;;;;;;;-1.56;57.93;99447.78;5184580;28;20447;-74
2022/03/06 03:22:23;;;;;;;29.17;11.98;;;;;;;-1.45;58.07;99451.69;5185171;28;20116;-74
2022/03/06 03:25:14;;;;;;;27.83;12.00;;;;;;;-1.50;56.60;99450.16;5182802;28;20075;-74
2022/03/06 03:28:04;;;;;;;32.75;12.85;;;;;;;-1.46;57.48;99450.00;5180722;28;20049;-74
2022/03/06 03:30:54;;;;;;;29.80;11.60;;;;;;;-1.67;57.70;99441.22;5181328;28;20069;-74
2022/03/06 03:33:45;;;;;;;29.48;13.13;;;;;;;-1.42;57.72;99458.53;5181083;28;20419;-75
2022/03/06 03:36:35;;;;;;;29.08;12.48;;;;;;;-1.50;57.99;99456.22;5160047;28;20519;-74
2022/03/06 03:39:26;;;;;;;32.70;13.20;;;;;;;-1.28;58.09;99463.22;5181889;28;20061;-74
2022/03/06 03:42:16;;;;;;;35.47;12.95;;;;;;;-1.60;57.74;99451.41;5182677;28;20076;-75
2022/03/06 03:45:07;;;;;;;30.50;13.05;;;;;;;-1.44;58.10;99469.00;5181724;28;20070;-74
2022/03/06 03:47:57;;;;;;;31.25;13.48;;;;;;;-1.72;58.08;99457.91;5181826;28;20049;-74
2022/03/06 03:50:47;;;;;;;34.75;13.25;;;;;;;-1.57;58.70;99462.53;5182837;28;20112;-74
2022/03/06 03:53:38;;;;;;;31.08;12.52;;;;;;;-1.67;58.47;99476.78;5182702;28;20061;-75
2022/03/06 03:56:28;;;;;;;31.67;12.20;;;;;;;-1.64;58.41;99471.47;5181076;28;20061;-74
2022/03/06 03:59:18;;;;;;;30.73;12.65;;;;;;;-1.77;58.09;99478.88;5181321;28;20060;-74
2022/03/06 04:02:09;;;;;;;29.73;12.60;;;;;;;-1.97;58.74;99447.53;5179604;28;20050;-74
2022/03/06 04:05:00;;;;;;;29.98;13.20;;;;;;;-1.68;58.10;99490.69;5181234;28;20519;-74
2022/03/06 04:07:50;;;;;;;29.70;12.68;;;;;;;-1.67;58.04;99482.84;5181929;28;20056;-74
2022/03/06 04:10:40;;;;;;;33.45;13.98;;;;;;;-1.59;58.49;99495.56;5182368;28;20478;-75
2022/03/06 04:13:30;;;;;;;32.88;13.23;;;;;;;-1.69;58.46;99473.38;5181913;28;20519;-74
2022/03/06 04:16:20;;;;;;;31.42;12.95;;;;;;;-1.81;58.29;99499.84;5181279;28;20053;-74
2022/03/06 04:19:11;;;;;;;25.88;11.98;;;;;;;-1.87;58.16;99490.50;5181900;28;20049;-75
2022/03/06 04:22:00;;;;;;;29.60;12.48;;;;;;;-2.06;57.50;99490.28;5179269;28;20383;-75
2022/03/06 04:24:51;;;;;;;35.42;13.25;;;;;;;-2.20;58.93;99477.75;5181726;28;20463;-75
2022/03/06 04:27:41;;;;;;;29.00;12.80;;;;;;;-2.00;59.82;99499.63;5196497;28;20048;-74
2022/03/06 04:30:31;;;;;;;35.15;14.10;;;;;;;-1.93;59.59;99496.75;5200688;28;20275;-75
2022/03/06 04:33:25;;;;;;;;;;;;;;;-1.78;59.67;99510.97;5201673;28;20080;-75
2022/03/06 04:36:15;;;;;;;33.28;13.35;;;;;;;-1.87;59.19;99515.63;5161651;28;20018;-75
2022/03/06 04:39:05;;;;;;;32.53;12.93;;;;;;;-1.92;59.93;99507.97;5162346;28;20505;-75
2022/03/06 04:41:56;;;;;;;30.02;12.52;;;;;;;-1.92;59.27;99503.66;5162344;28;20054;-75
2022/03/06 04:44:46;;;;;;;34.13;13.30;;;;;;;-1.78;59.17;99503.19;5161681;28;20062;-75
2022/03/06 04:47:36;;;;;;;32.70;13.68;;;;;;;-1.68;58.66;99519.28;5161554;28;20053;-75
2022/03/06 04:50:26;;;;;;;33.75;13.95;;;;;;;-1.73;59.23;99496.03;5179460;28;20058;-75
2022/03/06 04:53:17;;;;;;;34.65;14.23;;;;;;;-1.61;59.15;99517.31;5177860;28;20049;-75
2022/03/06 04:56:07;;;;;;;32.10;13.35;;;;;;;-1.82;59.65;99501.59;5178816;28;20189;-74
2022/03/06 04:58:57;;;;;;;35.28;14.10;;;;;;;-1.58;58.67;99518.06;5183855;28;20061;-75
2022/03/06 05:01:47;;;;;;;31.60;13.85;;;;;;;-1.67;58.86;99510.59;5184192;28;20069;-75
2022/03/06 05:04:37;;;;;;;33.40;13.75;;;;;;;-1.60;59.04;99522.47;5184107;28;20054;-75
2022/03/06 05:07:27;;;;;;;33.78;13.43;;;;;;;-1.84;59.82;99510.34;5200634;23;20045;-68
2022/03/06 05:10:17;;;;;;;32.90;13.38;;;;;;;-1.91;60.15;99527.91;5185269;28;20058;-67
2022/03/06 05:13:09;;;;;;;32.58;13.93;;;;;;;-2.19;59.49;99514.97;5185721;28;20178;-68
2022/03/06 05:15:59;;;;;;;32.25;13.65;;;;;;;-2.28;59.18;99494.53;5185098;28;20058;-68
2022/03/06 05:18:49;;;;;;;34.47;13.23;;;;;;;-2.18;58.58;99533.13;5182769;28;20046;-68
2022/03/06 05:21:40;;;;;;;31.58;13.65;;;;;;;-2.19;58.71;99535.75;5182944;28;20522;-67
2022/03/06 05:24:30;;;;;;;34.15;13.48;;;;;;;-2.17;59.78;99534.81;5184187;28;20052;-68
2022/03/06 05:27:20;;;;;;;32.65;14.05;;;;;;;-2.23;59.45;99535.00;5182302;28;20143;-68
2022/03/06 05:30:11;;;;;;;35.20;14.38;;;;;;;-2.12;59.67;99521.66;5182420;28;20060;-68
2022/03/06 05:33:02;;;;;;;29.38;13.35;;;;;;;-1.67;59.47;99541.78;5184112;28;20139;-68
2022/03/06 05:35:52;;;;;;;32.95;13.38;;;;;;;-1.89;59.90;99541.66;5182520;28;20127;-68
2022/03/06 05:38:42;;;;;;;34.47;13.73;;;;;;;-2.15;59.78;99537.38;5182389;28;20132;-68
2022/03/06 05:41:32;;;;;;;36.22;13.73;;;;;;;-2.32;59.22;99543.09;5182194;28;20133;-68
2022/03/06 05:44:24;;;;;;;33.70;13.10;;;;;;;-2.33;59.61;99548.34;5184772;28;20210;-68
2022/03/06 05:47:14;;;;;;;31.23;13.15;;;;;;;-2.38;60.90;99549.34;5182865;28;20343;-67
2022/03/06 05:50:07;;;;;;;36.90;14.63;;;;;;;-2.34;61.45;99563.09;5182289;28;20088;-67
2022/03/06 05:52:57;;;;;;;34.92;14.20;;;;;;;-2.19;60.97;99562.56;5181458;28;20057;-68
2022/03/06 05:55:47;;;;;;;36.25;14.63;;;;;;;-2.35;61.60;99561.41;5182835;28;20054;-68
2022/03/06 05:58:37;;;;;;;33.97;13.50;;;;;;;-2.28;61.08;99556.88;5183638;28;20061;-68
2022/03/06 06:01:29;;;;;;;38.80;14.25;;;;;;;-1.90;60.45;99556.41;5182738;28;20065;-68
2022/03/06 06:04:19;;;;;;;36.08;14.85;;;;;;;-2.08;60.29;99564.00;5184331;28;20471;-68
2022/03/06 06:07:10;;;;;;;39.40;15.40;;;;;;;-1.86;61.10;99562.34;5182840;28;20053;-68
2022/03/06 06:10:01;;;;;;;33.28;13.98;;;;;;;-1.84;61.53;99567.53;5183654;28;20056;-68
2022/03/06 06:12:51;;;;;;;32.33;13.18;;;;;;;-1.96;60.19;99577.41;5183957;28;20053;-68
2022/03/06 06:15:43;;;;;;;32.00;12.85;;;;;;;-1.95;60.17;99567.91;5180292;28;20060;-68
2022/03/06 06:18:33;;;;;;;39.05;14.85;;;;;;;-1.94;60.17;99562.63;5181409;28;20400;-69
2022/03/06 06:21:23;;;;;;;36.85;14.45;;;;;;;-2.06;61.23;99557.00;5181796;28;20115;-69
2022/03/06 06:24:15;;;;;;;36.97;14.13;;;;;;;-1.96;61.39;99568.78;5182654;28;20062;-69
2022/03/06 06:27:05;;;;;;;34.42;14.40;;;;;;;-2.14;61.28;99559.84;5183125;28;20076;-69
2022/03/06 06:29:55;;;;;;;37.55;14.98;;;;;;;-2.02;61.79;99572.44;5182949;28;20419;-69
2022/03/06 06:32:46;;;;;;;40.28;16.38;;;;;;;-1.89;61.19;99575.47;5184025;28;20466;-69
2022/03/06 06:35:36;;;;;;;36.97;14.65;;;;;;;-1.81;61.40;99577.81;5182258;28;20057;-69
2022/03/06 06:38:27;;;;;;;37.28;15.52;;;;;;;-1.55;61.17;99564.78;5182369;28;20153;-68
2022/03/06 06:41:17;;;;;;;40.35;15.40;;;;;;;-1.49;60.30;99576.69;5182779;28;20428;-69
2022/03/06 06:44:09;;;;;;;37.25;14.25;;;;;;;-1.57;60.34;99579.56;5182415;28;20057;-68
2022/03/06 06:47:00;;;;;;;39.20;16.55;;;;;;;-1.24;60.09;99577.50;5180392;28;20049;-68
2022/03/06 06:49:50;;;;;;;38.70;16.27;;;;;;;-1.24;60.34;99582.72;5183358;28;20705;-69
2022/03/06 06:52:40;;;;;;;36.45;15.40;;;;;;;-1.17;59.46;99574.69;5182161;28;20689;-68
2022/03/06 06:55:30;;;;;;;36.72;15.85;;;;;;;-0.69;59.08;99581.59;5183122;28;20180;-68
2022/03/06 06:58:20;;;;;;;41.22;15.45;;;;;;;-0.19;57.38;99568.31;5184135;28;20503;-68
2022/03/06 07:01:10;;;;;;;37.03;15.82;;;;;;;0.25;56.48;99576.91;5162051;28;20058;-67
2022/03/06 07:04:01;;;;;;;35.70;15.45;;;;;;;0.62;55.18;99560.50;5163263;28;20660;-67
2022/03/06 07:06:51;;;;;;;39.80;16.30;;;;;;;0.93;54.08;99578.28;5170822;28;20089;-67
2022/03/06 07:09:41;;;;;;;40.75;16.35;;;;;;;1.07;53.88;99579.41;5183719;28;20145;-67
2022/03/06 07:12:31;;;;;;;38.97;15.68;;;;;;;1.29;54.15;99587.09;5183044;28;20060;-67
2022/03/06 07:15:28;;;;;;;36.20;15.40;;;;;;;1.20;53.57;99577.94;5183272;28;20435;-67
2022/03/06 07:18:18;;;;;;;38.80;15.63;;;;;;;1.14;53.59;99586.91;5181380;28;20057;-66
2022/03/06 07:21:08;;;;;;;36.60;16.38;;;;;;;1.24;54.67;99592.56;5179831;28;20691;-66
2022/03/06 07:23:58;;;;;;;39.70;17.35;;;;;;;1.78;53.73;99590.84;5185976;28;20052;-66
2022/03/06 07:26:48;;;;;;;33.30;15.48;;;;;;;2.28;52.55;99584.06;5182608;28;20041;-68
2022/03/06 07:29:38;;;;;;;41.22;15.82;;;;;;;2.71;50.95;99568.78;5181418;28;20056;-67
2022/03/06 07:32:28;;;;;;;36.28;16.08;;;;;;;2.58;51.69;99579.03;5182418;28;20140;-67
2022/03/06 07:35:20;;;;;;;35.53;16.75;;;;;;;3.02;51.56;99586.38;5182541;28;20057;-68
2022/03/06 07:38:10;;;;;;;42.67;16.35;;;;;;;2.92;50.94;99561.59;5182851;28;20057;-67
2022/03/06 07:41:00;;;;;;;42.13;18.17;;;;;;;2.13;53.02;99564.75;5182699;28;20527;-69
2022/03/06 07:43:50;;;;;;;39.10;18.17;;;;;;;2.29;52.99;99584.00;5182749;28;20196;-68
2022/03/06 07:46:41;;;;;;;40.05;18.98;;;;;;;2.10;52.79;99593.69;5181356;28;20518;-68
2022/03/06 07:49:32;;;;;;;52.92;23.90;;;;;;;1.82;54.18;99602.88;5172068;28;20113;-69
2022/03/06 07:52:26;;;;;;;44.47;21.83;;;;;;;1.92;54.30;99607.66;5182358;28;20050;-69
2022/03/06 07:55:18;;;;;;;48.25;19.77;;;;;;;1.65;54.40;99608.91;5176071;28;20140;-69
2022/03/06 07:58:08;;;;;;;40.65;18.25;;;;;;;2.04;54.48;99601.84;5176483;28;20066;-69
2022/03/06 08:00:58;;;;;;;41.00;18.55;;;;;;;2.92;51.56;99593.84;5181552;28;20057;-69
2022/03/06 08:03:48;;;;;;;37.22;17.98;;;;;;;3.60;50.43;99605.94;5182472;28;20057;-69
2022/03/06 08:06:38;;;;;;;35.17;17.70;;;;;;;4.34;49.15;99610.47;5181815;28;20192;-69
2022/03/06 08:09:28;;;;;;;36.88;17.33;;;;;;;4.52;48.12;99603.31;5182734;28;20060;-70
2022/03/06 08:12:23;;;;;;;35.88;17.38;;;;;;;4.64;48.61;99619.19;5181528;28;20053;-69
2022/03/06 08:15:14;;;;;;;30.23;15.93;;;;;;;5.55;46.37;99617.09;5182743;28;20689;-70
2022/03/06 08:18:04;;;;;;;30.27;15.40;;;;;;;5.34;46.86;99607.94;5180935;28;20601;-70
2022/03/06 08:20:54;;;;;;;34.30;17.40;;;;;;;6.01;47.27;99611.56;5180951;28;20416;-69
2022/03/06 08:23:44;;;;;;;31.88;15.82;;;;;;;7.07;43.35;99589.47;5176898;28;20050;-70
2022/03/06 08:26:34;;;;;;;30.88;15.88;;;;;;;7.59;42.48;99599.94;5178879;28;20133;-71
2022/03/06 08:29:24;;;;;;;27.10;15.07;;;;;;;7.00;42.67;99597.94;5178344;28;20065;-69
2022/03/06 08:32:16;;;;;;;30.63;15.68;;;;;;;6.62;45.23;99587.38;5182385;28;20108;-72
2022/03/06 08:35:07;;;;;;;26.58;14.02;;;;;;;7.00;42.31;99596.13;5186287;28;20151;-70
2022/03/06 08:37:58;;;;;;;28.05;13.80;;;;;;;6.90;43.47;99583.69;5184002;28;20681;-69
2022/03/06 08:40:48;;;;;;;26.88;13.70;;;;;;;7.38;41.57;99600.50;5189040;28;20073;-72
2022/03/06 08:43:39;;;;;;;25.20;13.65;;;;;;;7.96;40.10;99566.44;5156605;28;20100;-70
2022/03/06 08:46:28;;;;;;;26.20;13.90;;;;;;;7.10;42.13;99590.22;5181887;28;20053;-73
2022/03/06 08:49:20;;;;;;;27.92;13.70;;;;;;;8.25;39.87;99603.91;5186038;28;20451;-70
2022/03/06 08:52:10;;;;;;;25.98;13.48;;;;;;;8.40;40.06;99589.56;5186202;28;20057;-70
2022/03/06 08:55:01;;;;;;;26.60;14.57;;;;;;;9.19;38.91;99600.25;5181081;28;20057;-72
2022/03/06 08:57:51;;;;;;;26.58;13.98;;;;;;;9.94;36.78;99596.91;5184429;28;20049;-71
2022/03/06 09:00:41;;;;;;;21.88;12.20;;;;;;;9.51;36.45;99570.41;5183354;28;20136;-72
2022/03/06 09:03:31;;;;;;;27.90;13.32;;;;;;;7.35;38.98;99576.13;5184928;28;20093;-69
2022/03/06 09:06:22;;;;;;;26.55;14.65;;;;;;;7.52;39.30;99592.47;5184789;28;20131;-69
2022/03/06 09:09:12;;;;;;;24.77;14.32;;;;;;;8.96;38.34;99596.75;5184446;28;20076;-71
2022/03/06 09:12:03;;;;;;;25.67;14.20;;;;;;;8.18;39.05;99587.66;5173208;28;20523;-71
2022/03/06 09:14:54;;;;;;;27.40;15.18;;;;;;;7.74;39.21;99589.09;5178486;28;20086;-70
2022/03/06 09:17:44;;;;;;;25.40;14.23;;;;;;;8.69;38.60;99597.09;5181322;28;20057;-71
2022/03/06 09:20:35;;;;;;;28.48;14.77;;;;;;;9.28;36.33;99588.97;5180776;28;20050;-72
2022/03/06 09:23:25;;;;;;;25.83;14.18;;;;;;;9.79;36.10;99595.50;5174456;28;20167;-69
2022/03/06 09:26:15;;;;;;;28.35;15.05;;;;;;;9.93;36.47;99589.06;5181967;28;20050;-69
2022/03/06 09:29:06;;;;;;;23.77;14.68;;;;;;;10.53;35.22;99574.41;5174715;28;20583;-70
2022/03/06 09:31:56;;;;;;;26.73;14.43;;;;;;;9.85;36.09;99577.31;5173479;28;20050;-69
2022/03/06 09:34:46;;;;;;;28.00;14.38;;;;;;;10.70;35.36;99581.78;5175359;28;20420;-69
2022/03/06 09:37:37;;;;;;;25.70;14.05;;;;;;;9.68;36.48;99580.50;5174004;28;20416;-69
2022/03/06 09:40:28;;;;;;;25.25;14.50;;;;;;;10.48;35.07;99584.56;5176675;28;20505;-70
2022/03/06 09:43:18;;;;;;;23.25;13.63;;;;;;;10.34;34.29;99578.59;5182013;28;20191;-67
2022/03/06 09:46:08;;;;;;;26.00;14.20;;;;;;;11.56;33.68;99574.34;5183739;28;20412;-69
2022/03/06 09:49:01;;;;;;;25.25;14.07;;;;;;;10.58;33.70;99569.56;5183191;28;20211;-69
2022/03/06 09:51:52;;;;;;;23.55;13.68;;;;;;;9.41;34.88;99570.31;5182940;28;20049;-70
2022/03/06 09:54:43;;;;;;;26.42;14.93;;;;;;;8.36;38.16;99569.56;5183406;28;20056;-70
2022/03/06 09:57:33;;;;;;;25.55;13.98;;;;;;;9.25;35.86;99583.06;5184141;28;20529;-70
2022/03/06 10:00:24;;;;;;;27.70;14.82;;;;;;;9.02;35.28;99571.66;5184169;28;20345;-69
2022/03/06 10:03:21;;;;;;;25.20;14.63;;;;;;;9.82;34.92;99574.91;5183926;28;20064;-70
2022/03/06 10:06:14;;;;;;;24.50;13.82;;;;;;;9.24;34.81;99553.13;5184257;28;20061;-70
2022/03/06 10:09:05;;;;;;;24.20;13.87;;;;;;;9.31;34.38;99582.59;5191033;28;20052;-68
2022/03/06 10:11:55;;;;;;;24.27;13.63;;;;;;;10.63;33.33;99580.63;5172410;28;20702;-71
2022/03/06 10:14:46;;;;;;;22.33;11.85;;;;;;;9.60;32.40;99573.16;5183177;28;20538;-71
2022/03/06 10:17:39;;;;;;;20.08;11.88;;;;;;;9.68;33.54;99575.19;5183019;28;20188;-70
2022/03/06 10:20:29;;;;;;;24.15;12.68;;;;;;;10.34;32.15;99557.41;5182870;28;20565;-68
2022/03/06 10:23:27;;;;;;;31.48;16.02;;;;;;;8.74;34.13;99573.78;5182640;28;20723;-68
2022/03/06 10:26:20;;;;;;;16.30;9.60;;;;;;;8.08;34.43;99577.88;5162601;28;20134;-71
2022/03/06 10:29:11;;;;;;;18.67;10.63;;;;;;;7.93;33.39;99571.94;5163046;28;20053;-71
2022/03/06 10:32:04;;;;;;;18.17;11.05;;;;;;;7.11;35.93;99586.63;5172597;28;20058;-72
2022/03/06 10:35:04;;;;;;;19.52;11.05;;;;;;;7.19;34.30;99576.41;5177234;28;20056;-69
2022/03/06 10:37:54;;;;;;;16.45;10.02;;;;;;;7.52;34.60;99581.91;5175271;28;20050;-69
2022/03/06 10:40:44;;;;;;;17.42;10.35;;;;;;;6.58;35.91;99592.00;5172821;28;20057;-70
2022/03/06 10:43:35;;;;;;;18.67;11.35;;;;;;;6.59;36.55;99573.47;5180102;28;20163;-70
2022/03/06 10:46:25;;;;;;;17.73;10.25;;;;;;;6.54;36.47;99578.19;5182606;28;20049;-70
2022/03/06 10:49:16;;;;;;;17.38;10.40;;;;;;;7.79;34.71;99567.66;5166021;28;20054;-70
2022/03/06 10:52:19;;;;;;;19.95;10.63;;;;;;;7.06;35.19;99566.69;5161310;28;20093;-69
2022/03/06 10:55:10;;;;;;;17.50;10.15;;;;;;;7.45;34.96;99564.84;5162308;28;20064;-70
2022/03/06 10:58:03;;;;;;;19.75;10.40;;;;;;;8.38;34.05;99554.50;5162200;28;20534;-69
2022/03/06 11:00:53;;;;;;;20.70;10.55;;;;;;;9.33;32.96;99557.66;5171823;28;20049;-70
2022/03/06 11:03:43;;;;;;;20.25;10.80;;;;;;;8.74;33.72;99539.44;5174500;28;20073;-70
2022/03/06 11:06:39;;;;;;;17.85;10.10;;;;;;;8.84;33.63;99558.91;5173617;28;20068;-69
2022/03/06 11:09:30;;;;;;;18.40;10.77;;;;;;;9.68;32.04;99554.00;5172326;28;20129;-69
2022/03/06 11:12:23;;;;;;;14.18;9.05;;;;;;;8.36;32.41;99561.66;5171386;28;20129;-69
2022/03/06 11:15:14;;;;;;;14.98;9.82;;;;;;;8.02;33.20;99562.50;5171610;28;20049;-69
2022/03/06 11:18:06;;;;;;;19.55;10.68;;;;;;;7.84;33.87;99557.59;5168428;28;20124;-69
2022/03/06 11:20:59;;;;;;;16.73;9.73;;;;;;;8.30;33.66;99542.78;5173797;28;20057;-69
2022/03/06 11:23:52;;;;;;;25.75;14.43;;;;;;;9.51;32.35;99558.03;5173271;28;20224;-69
2022/03/06 11:27:20;;;;;;;22.13;12.00;;;;;;;9.76;31.80;99558.66;5171048;28;20134;-69
2022/03/06 11:30:20;;;;;;;20.48;10.75;;;;;;;9.27;31.39;99550.25;5172283;28;20050;-69
2022/03/06 11:33:11;;;;;;;23.50;13.25;;;;;;;10.53;32.01;99539.94;5172122;28;20057;-69
2022/03/06 11:36:19;;;;;;;15.82;9.50;;;;;;;9.43;35.04;99554.28;5176178;28;20720;-69
2022/03/06 11:39:09;;;;;;;18.17;9.93;;;;;;;9.45;32.39;99549.72;5171731;28;20616;-69
2022/03/06 11:42:05;;;;;;;29.17;14.48;;;;;;;9.97;33.91;99548.16;5170835;28;20061;-69
2022/03/06 11:44:57;;;;;;;39.60;18.45;;;;;;;8.28;31.29;99555.25;5172322;28;20065;-68
2022/03/06 11:47:47;;;;;;;23.63;13.65;;;;;;;8.51;32.23;99543.84;5181722;28;20053;-70
2022/03/06 11:50:41;;;;;;;41.00;19.85;;;;;;;8.57;32.08;99545.16;5179550;28;20065;-72
2022/03/06 11:54:09;;;;;;;29.25;15.50;;;;;;;9.36;33.92;99533.59;5178622;28;20285;-72
2022/03/06 11:57:00;;;;;;;16.60;9.75;;;;;;;9.61;32.97;99527.19;5160556;28;20065;-69
2022/03/06 11:59:50;;;;;;;17.58;9.93;;;;;;;10.03;32.18;99537.03;5165514;28;20046;-71
2022/03/06 12:02:53;;;;;;;14.88;9.10;;;;;;;10.10;31.98;99528.47;5180596;28;20053;-68
2022/03/06 12:05:46;;;;;;;15.77;9.95;;;;;;;9.23;30.94;99522.31;5181844;28;20155;-70
2022/03/06 12:08:41;;;;;;;15.57;9.53;;;;;;;9.82;30.40;99529.88;5182065;28;20081;-71
2022/03/06 12:11:31;;;;;;;15.90;9.70;;;;;;;8.76;31.87;99528.72;5164125;28;20205;-67
2022/03/06 12:14:23;;;;;;;16.58;9.57;;;;;;;8.55;32.18;99539.16;5181784;28;20056;-70
2022/03/06 12:17:13;;;;;;;15.68;10.07;;;;;;;8.81;33.06;99532.69;5179795;28;20057;-71
2022/03/06 12:20:03;;;;;;;17.13;10.10;;;;;;;8.70;31.72;99532.66;5181039;28;20686;-69
2022/03/06 12:22:57;;;;;;;14.70;9.73;;;;;;;9.54;30.70;99518.06;5181846;28;20115;-68
2022/03/06 12:25:53;;;;;;;20.27;10.40;;;;;;;7.39;32.31;99517.78;5180853;28;20065;-67
2022/03/06 12:28:44;;;;;;;16.45;9.93;;;;;;;8.61;32.78;99514.88;5181050;28;20073;-69
2022/03/06 12:31:37;;;;;;;18.25;10.10;;;;;;;9.31;30.94;99519.91;5163417;28;20057;-69
2022/03/06 12:34:40;;;;;;;15.13;9.07;;;;;;;7.94;33.97;99508.44;5161961;28;20141;-69
2022/03/06 12:37:31;;;;;;;15.48;9.65;;;;;;;9.08;31.69;99505.03;5182316;28;20060;-67
2022/03/06 12:40:27;;;;;;;19.83;9.68;;;;;;;8.00;32.66;99507.13;5181338;28;20443;-67
2022/03/06 12:43:19;;;;;;;15.10;8.95;;;;;;;7.37;32.77;99505.66;5181109;28;20048;-67
2022/03/06 12:46:11;;;;;;;15.40;9.63;;;;;;;8.45;33.19;99502.00;5181081;28;20053;-66
2022/03/06 12:49:01;;;;;;;14.85;8.68;;;;;;;9.41;32.63;99497.03;5181573;28;20109;-67
2022/03/06 12:51:53;;;;;;;15.57;9.75;;;;;;;9.80;33.15;99505.34;5180867;28;20140;-67
2022/03/06 12:54:46;;;;;;;15.63;8.80;;;;;;;8.75;33.30;99496.16;5179966;28;20073;-69
2022/03/06 12:57:38;;;;;;;15.07;8.55;;;;;;;8.37;33.21;99499.06;5175430;28;20053;-68
2022/03/06 13:00:31;;;;;;;15.98;9.40;;;;;;;6.39;36.22;99502.88;5170060;28;20671;-67
2022/03/06 13:03:25;;;;;;;17.48;9.63;;;;;;;7.22;34.36;99497.06;5170328;28;20046;-68
2022/03/06 13:06:16;;;;;;;21.27;11.05;;;;;;;7.10;36.69;99493.50;5170528;28;20428;-67
2022/03/06 13:09:06;;;;;;;15.63;9.05;;;;;;;7.39;36.78;99498.47;5177566;28;20042;-67
2022/03/06 13:11:59;;;;;;;16.15;9.30;;;;;;;8.62;35.50;99484.84;5170980;28;20046;-67
2022/03/06 13:14:49;;;;;;;27.42;14.73;;;;;;;8.95;33.04;99497.22;5171208;28;20042;-68